createdAt,value
2019-03-01T00:01:59.136Z,88.80
2019-03-01T00:03:16.682Z,89.40
2019-03-01T00:04:33.937Z,89.80
2019-03-01T00:05:50.280Z,90.20
2019-03-01T00:07:07.663Z,90.30
2019-03-01T00:08:24.120Z,90.50
2019-03-01T00:09:40.633Z,90.60
2019-03-01T00:10:57.393Z,90.70
2019-03-01T00:12:14.033Z,90.90
2019-03-01T00:13:31.103Z,90.90
2019-03-01T00:14:47.717Z,91.00
2019-03-01T00:16:04.348Z,91.00
2019-03-01T00:17:21.562Z,91.00
2019-03-01T00:18:38.344Z,91.20
2019-03-01T00:19:55.546Z,91.30
2019-03-01T00:21:29.837Z,91.40
2019-03-01T00:23:12.983Z,91.40
2019-03-01T00:24:29.238Z,91.50
2019-03-01T00:25:46.503Z,91.40
2019-03-01T00:27:03.041Z,91.50
2019-03-01T00:28:19.726Z,91.50
2019-03-01T00:29:36.202Z,91.40
2019-03-01T00:30:52.696Z,91.50
2019-03-01T00:32:09.974Z,91.60
2019-03-01T00:33:26.445Z,91.70
2019-03-01T00:34:45.265Z,91.80
2019-03-01T00:36:01.982Z,91.70
2019-03-01T00:37:19.014Z,91.70
2019-03-01T00:38:35.516Z,91.80
2019-03-01T00:39:52.674Z,91.90
2019-03-01T00:41:10.688Z,91.90
2019-03-01T00:42:28.013Z,92.00
2019-03-01T00:43:44.661Z,92.00
2019-03-01T00:45:01.979Z,92.00
2019-03-01T00:46:18.467Z,92.00
2019-03-01T00:47:35.664Z,92.10
2019-03-01T00:48:52.041Z,92.20
2019-03-01T00:50:09.130Z,92.30
2019-03-01T00:51:25.680Z,92.30
2019-03-01T00:52:42.527Z,92.30
2019-03-01T00:53:58.865Z,92.50
2019-03-01T00:55:16.125Z,92.50
2019-03-01T00:57:49.916Z,92.60
2019-03-01T00:59:07.196Z,92.50
2019-03-01T01:00:24.151Z,92.50
2019-03-01T01:01:40.490Z,92.60
2019-03-01T01:02:55.813Z,92.50
2019-03-01T01:04:12.412Z,92.60
2019-03-01T01:05:29.572Z,92.50
2019-03-01T01:06:46.190Z,92.60
2019-03-01T01:08:02.680Z,92.50
2019-03-01T01:09:19.113Z,92.60
2019-03-01T01:10:35.405Z,92.70
2019-03-01T01:11:52.541Z,92.80
2019-03-01T01:13:08.912Z,92.70
2019-03-01T01:14:25.941Z,92.80
2019-03-01T01:15:42.468Z,92.80
2019-03-01T01:16:59.643Z,92.80
2019-03-01T01:18:16.075Z,92.80
2019-03-01T01:19:32.473Z,92.80
2019-03-01T01:20:49.069Z,93.00
2019-03-01T01:22:05.445Z,92.90
2019-03-01T01:23:22.340Z,93.00
2019-03-01T01:24:39.033Z,93.00
2019-03-01T01:25:55.950Z,93.00
2019-03-01T01:27:12.550Z,93.10
2019-03-01T01:28:30.065Z,93.10
2019-03-01T01:29:46.388Z,93.10
2019-03-01T01:31:02.918Z,93.20
2019-03-01T01:32:19.897Z,93.20
2019-03-01T01:33:36.532Z,93.10
2019-03-01T01:34:52.899Z,93.10
2019-03-01T01:36:10.383Z,93.10
2019-03-01T01:37:27.053Z,93.10
2019-03-01T01:38:44.329Z,93.10
2019-03-01T01:40:00.740Z,93.10
2019-03-01T01:41:17.990Z,93.10
2019-03-01T01:42:34.444Z,93.00
2019-03-01T01:43:51.606Z,93.00
2019-03-01T01:45:08.778Z,93.00
2019-03-01T01:46:25.976Z,93.10
2019-03-01T01:47:43.285Z,93.10
2019-03-01T01:48:59.838Z,93.10
2019-03-01T01:50:16.250Z,93.00
2019-03-01T01:51:32.788Z,93.10
2019-03-01T01:52:49.319Z,93.00
2019-03-01T01:54:06.108Z,93.00
2019-03-01T01:55:23.393Z,93.20
2019-03-01T01:56:40.032Z,93.10
2019-03-01T01:57:56.440Z,93.00
2019-03-01T01:59:12.795Z,93.10
2019-03-01T02:00:29.785Z,93.00
2019-03-01T02:01:46.090Z,93.00
2019-03-01T02:03:02.578Z,92.80
2019-03-01T02:04:18.941Z,92.80
2019-03-01T02:05:35.969Z,92.80
2019-03-01T02:08:08.452Z,92.60
2019-03-01T02:09:27.966Z,92.60
2019-03-01T02:10:44.455Z,92.60
2019-03-01T02:12:01.647Z,92.60
2019-03-01T02:13:18.191Z,92.60
2019-03-01T02:14:34.573Z,92.50
2019-03-01T02:15:51.378Z,92.50
2019-03-01T02:17:07.867Z,92.50
2019-03-01T02:18:24.929Z,92.50
2019-03-01T02:19:41.778Z,92.50
2019-03-01T02:20:59.064Z,92.50
2019-03-01T02:22:15.558Z,92.50
2019-03-01T02:23:32.756Z,92.50
2019-03-01T02:24:49.005Z,92.40
2019-03-01T02:26:05.393Z,92.40
2019-03-01T02:28:41.921Z,92.40
2019-03-01T02:29:58.778Z,92.50
2019-03-01T02:31:15.951Z,92.50
2019-03-01T02:32:33.156Z,92.70
2019-03-01T02:33:50.334Z,92.70
2019-03-01T02:35:07.853Z,92.70
2019-03-01T02:36:24.835Z,92.80
2019-03-01T02:37:42.094Z,92.80
2019-03-01T02:38:58.495Z,92.80
2019-03-01T02:40:15.770Z,92.80
2019-03-01T02:41:32.278Z,92.90
2019-03-01T02:42:48.754Z,93.20
2019-03-01T02:44:05.226Z,93.10
2019-03-01T02:45:22.710Z,93.20
2019-03-01T02:46:39.414Z,93.30
2019-03-01T02:47:44.605Z,93.30
2019-03-01T02:49:08.729Z,93.30
2019-03-01T02:50:25.866Z,93.30
2019-03-01T02:51:42.886Z,93.30
2019-03-01T02:52:59.438Z,93.20
2019-03-01T02:54:16.832Z,93.20
2019-03-01T02:55:34.051Z,93.20
2019-03-01T02:56:50.977Z,93.20
2019-03-01T02:58:07.574Z,93.30
2019-03-01T03:00:39.989Z,93.30
2019-03-01T03:01:57.315Z,93.40
2019-03-01T03:03:13.732Z,93.50
2019-03-01T03:04:30.142Z,93.50
2019-03-01T03:06:09.221Z,93.50
2019-03-01T03:07:45.336Z,93.40
2019-03-01T03:09:03.369Z,93.30
2019-03-01T03:10:21.763Z,93.30
2019-03-01T03:11:38.355Z,93.30
2019-03-01T03:12:54.878Z,93.40
2019-03-01T03:14:12.164Z,93.50
2019-03-01T03:17:03.358Z,93.60
2019-03-01T03:18:20.723Z,93.70
2019-03-01T03:19:37.250Z,93.80
2019-03-01T03:20:54.406Z,93.90
2019-03-01T03:22:11.579Z,94.10
2019-03-01T03:23:28.033Z,94.10
2019-03-01T03:24:45.289Z,94.30
2019-03-01T03:26:02.523Z,94.40
2019-03-01T03:27:19.715Z,94.40
2019-03-01T03:28:36.375Z,94.30
2019-03-01T03:29:52.635Z,94.30
2019-03-01T03:31:09.698Z,94.30
2019-03-01T03:32:26.830Z,94.30
2019-03-01T03:33:43.580Z,94.20
2019-03-01T03:35:00.632Z,94.20
2019-03-01T03:36:17.431Z,94.20
2019-03-01T03:37:33.729Z,94.20
2019-03-01T03:38:50.211Z,94.20
2019-03-01T03:40:07.525Z,94.20
2019-03-01T03:41:23.905Z,94.20
2019-03-01T03:42:40.331Z,94.30
2019-03-01T03:43:56.921Z,94.20
2019-03-01T03:45:13.630Z,94.40
2019-03-01T03:46:30.338Z,94.40
2019-03-01T03:47:46.865Z,94.40
2019-03-01T03:49:04.127Z,94.40
2019-03-01T03:50:20.625Z,94.30
2019-03-01T03:51:37.071Z,94.20
2019-03-01T03:52:53.639Z,94.10
2019-03-01T03:54:10.350Z,94.10
2019-03-01T03:55:27.588Z,94.00
2019-03-01T03:56:44.234Z,93.90
2019-03-01T03:58:01.311Z,93.90
2019-03-01T03:59:17.693Z,93.90
2019-03-01T04:00:35.309Z,93.80
2019-03-01T04:01:52.331Z,93.80
2019-03-01T04:03:08.739Z,93.80
2019-03-01T04:04:25.128Z,93.80
2019-03-01T04:05:41.443Z,94.00
2019-03-01T04:06:57.833Z,94.00
2019-03-01T04:08:14.438Z,94.10
2019-03-01T04:09:31.630Z,94.10
2019-03-01T04:10:48.259Z,94.20
2019-03-01T04:12:05.553Z,94.20
2019-03-01T04:13:22.079Z,94.30
2019-03-01T04:14:38.468Z,94.30
2019-03-01T04:15:54.905Z,94.30
2019-03-01T04:17:11.273Z,94.30
2019-03-01T04:18:27.798Z,94.40
2019-03-01T04:19:44.559Z,94.40
2019-03-01T04:21:00.996Z,94.30
2019-03-01T04:22:17.731Z,94.20
2019-03-01T04:23:34.018Z,94.10
2019-03-01T04:24:53.072Z,94.00
2019-03-01T04:26:10.259Z,94.00
2019-03-01T04:27:26.797Z,94.10
2019-03-01T04:28:43.423Z,94.00
2019-03-01T04:29:59.955Z,94.00
2019-03-01T04:31:17.235Z,94.00
2019-03-01T04:32:34.000Z,94.00
2019-03-01T04:33:50.974Z,94.00
2019-03-01T04:35:07.581Z,94.10
2019-03-01T04:36:24.001Z,94.10
2019-03-01T04:37:40.461Z,94.10
2019-03-01T04:38:56.851Z,94.00
2019-03-01T04:40:14.657Z,94.00
2019-03-01T04:41:31.845Z,94.00
2019-03-01T04:42:48.838Z,94.00
2019-03-01T04:44:05.422Z,94.10
2019-03-01T04:45:21.941Z,94.10
2019-03-01T04:46:37.167Z,94.10
2019-03-01T04:48:01.383Z,94.10
2019-03-01T04:49:18.369Z,94.10
2019-03-01T04:50:35.392Z,94.10
2019-03-01T04:51:52.366Z,94.20
2019-03-01T04:53:09.010Z,94.30
2019-03-01T04:54:25.459Z,94.40
2019-03-01T04:55:41.741Z,94.40
2019-03-01T04:56:58.342Z,94.50
2019-03-01T04:58:15.529Z,94.50
2019-03-01T04:59:33.197Z,94.50
2019-03-01T05:00:49.819Z,94.60
2019-03-01T05:02:06.332Z,94.60
2019-03-01T05:03:22.671Z,94.60
2019-03-01T05:04:38.000Z,94.50
2019-03-01T05:05:54.405Z,94.50
2019-03-01T05:07:10.999Z,94.50
2019-03-01T05:09:43.598Z,94.40
2019-03-01T05:10:59.956Z,94.00
2019-03-01T05:12:16.450Z,93.90
2019-03-01T05:13:32.817Z,93.90
2019-03-01T05:14:50.087Z,94.00
2019-03-01T05:16:06.718Z,93.90
2019-03-01T05:17:23.986Z,93.90
2019-03-01T05:18:40.496Z,94.00
2019-03-01T05:19:57.044Z,94.00
2019-03-01T05:21:13.421Z,94.10
2019-03-01T05:22:30.673Z,94.20
2019-03-01T05:23:47.236Z,94.30
2019-03-01T05:25:04.307Z,94.40
2019-03-01T05:26:21.038Z,94.30
2019-03-01T05:27:36.312Z,94.40
2019-03-01T05:29:00.427Z,94.50
2019-03-01T05:30:15.636Z,94.50
2019-03-01T05:31:39.808Z,94.50
2019-03-01T05:32:56.148Z,94.40
2019-03-01T05:34:13.340Z,94.40
2019-03-01T05:35:29.752Z,94.30
2019-03-01T05:36:46.948Z,94.20
2019-03-01T05:38:03.475Z,94.20
2019-03-01T05:39:20.016Z,94.10
2019-03-01T05:40:37.263Z,94.00
2019-03-01T05:41:53.849Z,94.10
2019-03-01T05:43:10.226Z,94.60
2019-03-01T05:44:26.816Z,94.60
2019-03-01T05:45:43.161Z,94.50
2019-03-01T05:47:00.390Z,94.50
2019-03-01T05:48:16.981Z,94.60
2019-03-01T05:49:33.400Z,94.80
2019-03-01T05:50:49.699Z,94.90
2019-03-01T05:52:04.920Z,95.00
2019-03-01T05:53:29.097Z,95.10
2019-03-01T05:54:46.320Z,95.20
2019-03-01T05:57:18.582Z,95.20
2019-03-01T05:58:35.537Z,95.40
2019-03-01T05:59:52.057Z,95.50
2019-03-01T06:01:09.393Z,95.50
2019-03-01T06:02:26.499Z,95.60
2019-03-01T06:03:43.054Z,95.60
2019-03-01T06:04:59.902Z,95.70
2019-03-01T06:06:16.641Z,95.60
2019-03-01T06:07:33.581Z,95.70
2019-03-01T06:08:50.790Z,95.90
2019-03-01T06:10:07.178Z,96.00
2019-03-01T06:13:21.881Z,96.20
2019-03-01T06:15:05.077Z,96.30
2019-03-01T06:16:21.372Z,96.40
2019-03-01T06:17:37.866Z,96.50
2019-03-01T06:18:57.111Z,96.60
2019-03-01T06:20:13.585Z,96.70
2019-03-01T06:21:29.976Z,96.70
2019-03-01T06:22:46.461Z,96.70
2019-03-01T06:24:48.625Z,96.70
2019-03-01T06:26:31.794Z,96.80
2019-03-01T06:27:48.271Z,96.70
2019-03-01T06:29:05.269Z,96.70
2019-03-01T06:30:21.940Z,96.80
2019-03-01T06:31:39.011Z,96.80
2019-03-01T06:32:55.413Z,96.70
2019-03-01T06:34:11.785Z,96.90
2019-03-01T06:35:28.741Z,97.00
2019-03-01T06:36:45.517Z,97.00
2019-03-01T06:38:02.741Z,96.90
2019-03-01T06:39:38.478Z,96.80
2019-03-01T06:42:56.519Z,96.70
2019-03-01T06:44:12.942Z,96.60
2019-03-01T06:45:29.755Z,96.50
2019-03-01T06:46:46.260Z,96.50
2019-03-01T06:48:02.668Z,96.50
2019-03-01T06:49:23.948Z,96.50
2019-03-01T06:51:02.200Z,96.40
2019-03-01T06:52:20.745Z,96.30
2019-03-01T06:53:37.205Z,96.20
2019-03-01T06:54:53.573Z,96.20
2019-03-01T06:56:09.996Z,96.30
2019-03-01T06:57:26.589Z,96.30
2019-03-01T06:58:43.266Z,96.30
2019-03-01T06:59:59.614Z,96.20
2019-03-01T07:01:21.841Z,96.30
2019-03-01T07:02:42.504Z,96.20
2019-03-01T07:04:20.973Z,96.30
2019-03-01T07:05:37.433Z,96.30
2019-03-01T07:06:53.903Z,96.30
2019-03-01T07:08:10.233Z,96.30
2019-03-01T07:09:26.516Z,96.20
2019-03-01T07:10:43.054Z,96.10
2019-03-01T07:11:59.517Z,96.00
2019-03-01T07:13:15.828Z,96.10
2019-03-01T07:14:32.197Z,96.10
2019-03-01T07:15:48.785Z,96.10
2019-03-01T07:17:05.350Z,96.10
2019-03-01T07:18:21.925Z,96.20
2019-03-01T07:19:38.773Z,96.10
2019-03-01T07:20:55.278Z,96.20
2019-03-01T07:22:11.464Z,96.20
2019-03-01T07:23:36.504Z,96.20
2019-03-01T07:24:46.082Z,96.20
2019-03-01T07:26:02.574Z,96.20
2019-03-01T07:27:19.137Z,96.20
2019-03-01T07:28:36.239Z,96.20
2019-03-01T07:29:52.534Z,96.20
2019-03-01T07:31:09.481Z,95.80
2019-03-01T07:32:26.629Z,95.80
2019-03-01T07:33:43.222Z,95.90
2019-03-01T07:35:00.343Z,95.90
2019-03-01T07:36:17.541Z,95.70
2019-03-01T07:37:34.059Z,95.20
2019-03-01T07:38:51.080Z,95.40
2019-03-01T07:40:07.996Z,95.30
2019-03-01T07:41:24.545Z,95.30
2019-03-01T07:42:41.282Z,95.20
2019-03-01T07:43:57.750Z,95.30
2019-03-01T07:45:14.129Z,95.30
2019-03-01T07:46:31.017Z,95.30
2019-03-01T07:47:47.600Z,95.40
2019-03-01T07:49:04.040Z,95.20
2019-03-01T07:50:20.792Z,95.30
2019-03-01T07:51:37.298Z,95.40
2019-03-01T07:52:53.892Z,95.40
2019-03-01T07:54:13.371Z,95.50
2019-03-01T07:55:29.693Z,95.70
2019-03-01T07:56:46.805Z,95.70
2019-03-01T07:58:03.160Z,95.70
2019-03-01T07:59:19.728Z,95.60
2019-03-01T08:00:37.057Z,95.80
2019-03-01T08:01:55.961Z,95.70
2019-03-01T08:03:15.118Z,95.70
2019-03-01T08:04:32.505Z,95.70
2019-03-01T08:05:49.625Z,95.60
2019-03-01T08:07:06.757Z,95.70
2019-03-01T08:08:23.476Z,95.40
2019-03-01T08:09:41.416Z,95.30
2019-03-01T08:11:00.140Z,95.20
2019-03-01T08:12:18.024Z,95.20
2019-03-01T08:13:34.641Z,95.00
2019-03-01T08:14:51.401Z,94.90
2019-03-01T08:16:08.100Z,94.60
2019-03-01T08:17:27.678Z,94.40
2019-03-01T08:18:44.267Z,94.40
2019-03-01T08:20:01.501Z,94.20
2019-03-01T08:21:18.919Z,94.20
2019-03-01T08:22:44.906Z,94.10
2019-03-01T08:23:53.808Z,94.10
2019-03-01T08:25:10.401Z,94.00
2019-03-01T08:26:26.657Z,94.00
2019-03-01T08:27:46.420Z,94.00
2019-03-01T08:29:01.139Z,93.80
2019-03-01T08:30:18.290Z,93.70
2019-03-01T08:31:35.011Z,93.60
2019-03-01T08:32:51.425Z,93.50
2019-03-01T08:34:08.730Z,93.50
2019-03-01T08:35:27.833Z,93.30
2019-03-01T08:36:43.938Z,93.30
2019-03-01T08:38:01.197Z,93.20
2019-03-01T08:39:18.042Z,93.00
2019-03-01T08:40:34.628Z,92.90
2019-03-01T08:41:51.245Z,92.80
2019-03-01T08:43:11.726Z,92.80
2019-03-01T08:44:26.013Z,92.60
2019-03-01T08:45:43.223Z,92.30
2019-03-01T08:47:00.197Z,92.10
2019-03-01T08:48:16.553Z,92.00
2019-03-01T08:49:32.884Z,92.00
2019-03-01T08:50:49.352Z,91.80
2019-03-01T08:52:06.527Z,91.80
2019-03-01T08:53:23.686Z,92.00
2019-03-01T08:54:40.232Z,91.90
2019-03-01T08:55:57.033Z,91.90
2019-03-01T08:57:13.478Z,92.10
2019-03-01T08:58:30.612Z,92.30
2019-03-01T08:59:48.409Z,92.40
2019-03-01T09:01:08.377Z,92.30
2019-03-01T09:02:23.278Z,92.50
2019-03-01T09:03:49.389Z,92.40
2019-03-01T09:05:08.937Z,92.40
2019-03-01T09:06:24.557Z,92.50
2019-03-01T09:07:41.194Z,92.40
2019-03-01T09:08:58.700Z,92.30
2019-03-01T09:10:15.080Z,92.50
2019-03-01T09:11:32.523Z,92.40
2019-03-01T09:12:50.132Z,92.30
2019-03-01T09:14:06.561Z,92.30
2019-03-01T09:15:23.664Z,92.00
2019-03-01T09:16:41.021Z,91.90
2019-03-01T09:17:57.646Z,91.80
2019-03-01T09:19:14.070Z,91.80
2019-03-01T09:20:32.521Z,91.70
2019-03-01T09:21:51.065Z,91.80
2019-03-01T09:23:19.898Z,91.70
2019-03-01T09:24:25.790Z,91.70
2019-03-01T09:25:50.664Z,91.60
2019-03-01T09:27:07.690Z,91.30
2019-03-01T09:28:24.223Z,91.20
2019-03-01T09:29:42.278Z,91.30
2019-03-01T09:30:59.295Z,91.20
2019-03-01T09:32:15.864Z,91.10
2019-03-01T09:33:32.660Z,91.20
2019-03-01T09:34:52.580Z,91.10
2019-03-01T09:36:17.837Z,90.90
2019-03-01T09:37:53.573Z,90.90
2019-03-01T09:39:11.185Z,91.00
2019-03-01T09:40:28.823Z,91.10
2019-03-01T09:41:46.277Z,91.20
2019-03-01T09:43:02.708Z,91.40
2019-03-01T09:44:19.145Z,91.40
2019-03-01T09:45:36.689Z,91.20
2019-03-01T09:46:52.050Z,91.20
2019-03-01T09:48:16.156Z,91.00
2019-03-01T09:49:33.245Z,90.90
2019-03-01T09:50:50.709Z,91.00
2019-03-01T09:52:07.292Z,91.00
2019-03-01T09:53:24.075Z,91.20
2019-03-01T09:54:40.665Z,91.30
2019-03-01T09:55:57.341Z,91.20
2019-03-01T09:57:15.596Z,91.40
2019-03-01T09:58:32.461Z,91.40
2019-03-01T09:59:48.872Z,91.20
2019-03-01T10:01:05.413Z,91.00
2019-03-01T10:02:25.803Z,90.90
2019-03-01T10:03:43.057Z,90.80
2019-03-01T10:05:00.472Z,90.40
2019-03-01T10:06:16.894Z,90.60
2019-03-01T10:07:33.420Z,90.30
2019-03-01T10:08:49.971Z,89.80
2019-03-01T10:10:06.618Z,90.00
2019-03-01T10:11:22.989Z,89.80
2019-03-01T10:12:39.265Z,89.30
2019-03-01T10:13:55.784Z,88.50
2019-03-01T10:15:12.975Z,88.40
2019-03-01T10:16:29.464Z,88.40
2019-03-01T10:17:45.779Z,88.00
2019-03-01T10:19:02.112Z,88.00
2019-03-01T10:20:18.964Z,88.60
2019-03-01T10:21:35.553Z,89.10
2019-03-01T10:22:52.102Z,88.90
2019-03-01T10:24:07.305Z,88.90
2019-03-01T10:25:31.777Z,88.70
2019-03-01T10:26:48.116Z,88.70
2019-03-01T10:28:04.641Z,88.70
2019-03-01T10:29:21.034Z,88.60
2019-03-01T10:30:37.441Z,88.80
2019-03-01T10:31:54.155Z,88.90
2019-03-01T10:33:12.203Z,88.80
2019-03-01T10:34:28.602Z,89.10
2019-03-01T10:35:45.066Z,89.30
2019-03-01T10:37:01.677Z,89.30
2019-03-01T10:38:18.300Z,89.40
2019-03-01T10:39:35.401Z,89.20
2019-03-01T10:40:52.449Z,89.60
2019-03-01T10:42:08.775Z,89.50
2019-03-01T10:43:25.561Z,89.90
2019-03-01T10:44:42.080Z,90.20
2019-03-01T10:45:58.402Z,90.40
2019-03-01T10:47:15.048Z,90.60
2019-03-01T10:48:31.992Z,90.60
2019-03-01T10:49:48.605Z,90.70
2019-03-01T10:51:04.883Z,90.50
2019-03-01T10:52:21.308Z,90.70
2019-03-01T10:53:38.521Z,90.80
2019-03-01T10:54:54.810Z,90.90
2019-03-01T10:56:11.473Z,91.10
2019-03-01T10:57:28.468Z,91.20
2019-03-01T10:58:45.154Z,91.00
2019-03-01T11:00:01.642Z,91.20
2019-03-01T11:01:19.962Z,91.30
2019-03-01T11:02:37.169Z,91.60
2019-03-01T11:03:53.770Z,91.80
2019-03-01T11:05:10.544Z,92.10
2019-03-01T11:06:27.488Z,92.30
2019-03-01T11:07:43.841Z,92.40
2019-03-01T11:09:00.376Z,92.40
2019-03-01T11:10:17.673Z,92.60
2019-03-01T11:11:34.412Z,92.80
2019-03-01T11:12:51.057Z,92.90
2019-03-01T11:14:08.342Z,93.10
2019-03-01T11:15:24.921Z,93.10
2019-03-01T11:16:41.481Z,93.20
2019-03-01T11:17:58.077Z,93.10
2019-03-01T11:19:14.682Z,93.20
2019-03-01T11:20:31.417Z,93.20
2019-03-01T11:21:48.043Z,93.20
2019-03-01T11:23:04.751Z,93.20
2019-03-01T11:24:21.529Z,93.30
2019-03-01T11:25:37.868Z,93.30
2019-03-01T11:26:54.707Z,93.40
2019-03-01T11:28:11.838Z,93.50
2019-03-01T11:29:29.405Z,93.50
2019-03-01T11:30:45.779Z,93.20
2019-03-01T11:32:02.459Z,93.30
2019-03-01T11:33:18.869Z,93.40
2019-03-01T11:34:36.305Z,93.20
2019-03-01T11:35:52.835Z,93.10
2019-03-01T11:37:09.305Z,93.30
2019-03-01T11:38:25.838Z,93.20
2019-03-01T11:39:42.158Z,93.10
2019-03-01T11:40:59.257Z,93.10
2019-03-01T11:42:16.418Z,92.90
2019-03-01T11:43:33.529Z,93.00
2019-03-01T11:44:50.000Z,93.10
2019-03-01T11:46:06.901Z,93.20
2019-03-01T11:47:23.597Z,93.30
2019-03-01T11:48:40.302Z,93.30
2019-03-01T11:49:56.873Z,93.30
2019-03-01T11:51:13.497Z,93.30
2019-03-01T11:52:30.613Z,93.20
2019-03-01T11:53:47.208Z,93.30
2019-03-01T11:55:04.454Z,93.40
2019-03-01T11:56:21.935Z,93.50
2019-03-01T11:57:40.465Z,93.40
2019-03-01T11:58:57.228Z,93.40
2019-03-01T12:00:15.297Z,93.30
2019-03-01T12:01:31.873Z,93.30
2019-03-01T12:02:48.293Z,93.20
2019-03-01T12:04:04.686Z,93.10
2019-03-01T12:05:21.232Z,93.10
2019-03-01T12:06:37.859Z,93.10
2019-03-01T12:07:53.096Z,93.10
2019-03-01T12:09:09.492Z,92.80
2019-03-01T12:10:25.458Z,92.60
2019-03-01T12:11:49.626Z,92.60
2019-03-01T12:13:06.620Z,92.60
2019-03-01T12:14:23.145Z,92.50
2019-03-01T12:15:40.212Z,92.60
2019-03-01T12:16:58.057Z,92.40
2019-03-01T12:18:14.783Z,92.30
2019-03-01T12:19:31.347Z,92.30
2019-03-01T12:20:46.592Z,92.20
2019-03-01T12:22:04.152Z,92.00
2019-03-01T12:23:20.695Z,92.00
2019-03-01T12:24:37.841Z,92.00
2019-03-01T12:25:54.347Z,92.00
2019-03-01T12:27:11.855Z,92.10
2019-03-01T12:28:28.386Z,92.10
2019-03-01T12:29:44.936Z,92.00
2019-03-01T12:31:02.215Z,92.00
2019-03-01T12:32:18.901Z,92.00
2019-03-01T12:33:35.280Z,91.90
2019-03-01T12:34:52.126Z,91.80
2019-03-01T12:36:08.552Z,91.80
2019-03-01T12:37:25.037Z,91.80
2019-03-01T12:38:41.450Z,91.70
2019-03-01T12:39:57.965Z,91.80
2019-03-01T12:41:15.509Z,91.70
2019-03-01T12:42:32.286Z,91.60
2019-03-01T12:43:48.817Z,91.60
2019-03-01T12:45:06.010Z,91.60
2019-03-01T12:46:23.270Z,91.60
2019-03-01T12:47:39.738Z,91.60
2019-03-01T12:48:56.210Z,91.30
2019-03-01T12:50:12.677Z,90.90
2019-03-01T12:51:29.918Z,91.10
2019-03-01T12:52:46.551Z,90.90
2019-03-01T12:54:03.222Z,90.60
2019-03-01T12:55:20.010Z,90.50
2019-03-01T12:56:37.252Z,90.20
2019-03-01T12:57:53.703Z,90.10
2019-03-01T12:59:10.353Z,89.60
2019-03-01T13:00:27.341Z,89.30
2019-03-01T13:01:43.957Z,88.80
2019-03-01T13:03:01.237Z,88.80
2019-03-01T13:04:18.569Z,88.50
2019-03-01T13:05:37.701Z,88.80
2019-03-01T13:06:54.998Z,89.00
2019-03-01T13:08:12.615Z,89.00
2019-03-01T13:09:29.518Z,89.00
2019-03-01T13:10:46.622Z,88.90
2019-03-01T13:12:03.548Z,88.80
2019-03-01T13:13:20.648Z,89.20
2019-03-01T13:14:39.510Z,89.30
2019-03-01T13:15:55.226Z,89.00
2019-03-01T13:17:11.668Z,88.60
2019-03-01T13:18:28.340Z,88.80
2019-03-01T13:19:45.551Z,88.40
2019-03-01T13:21:01.923Z,88.40
2019-03-01T13:22:19.211Z,88.60
2019-03-01T13:23:37.505Z,88.80
2019-03-01T13:24:54.235Z,88.70
2019-03-01T13:26:11.001Z,88.80
2019-03-01T13:27:27.585Z,89.00
2019-03-01T13:28:47.027Z,89.10
2019-03-01T13:30:03.118Z,88.50
2019-03-01T13:31:19.517Z,88.30
2019-03-01T13:32:36.031Z,88.10
2019-03-01T13:33:53.225Z,87.20
2019-03-01T13:35:12.307Z,86.80
2019-03-01T13:36:28.156Z,85.90
2019-03-01T13:37:44.728Z,85.90
2019-03-01T13:39:01.253Z,86.10
2019-03-01T13:40:20.845Z,85.60
2019-03-01T13:41:38.035Z,85.50
2019-03-01T13:42:53.357Z,85.70
2019-03-01T13:44:17.479Z,85.90
2019-03-01T13:45:33.948Z,85.90
2019-03-01T13:46:53.205Z,85.60
2019-03-01T13:48:09.553Z,85.40
2019-03-01T13:49:26.763Z,85.30
2019-03-01T13:50:43.540Z,84.30
2019-03-01T13:51:59.856Z,84.10
2019-03-01T13:53:16.661Z,84.10
2019-03-01T13:54:32.112Z,83.40
2019-03-01T13:55:56.389Z,83.20
2019-03-01T13:57:34.038Z,83.40
2019-03-01T13:58:51.053Z,83.60
2019-03-01T14:00:07.492Z,83.30
2019-03-01T14:01:27.138Z,83.50
2019-03-01T14:02:46.869Z,83.30
2019-03-01T14:04:03.241Z,83.20
2019-03-01T14:05:19.764Z,83.50
2019-03-01T14:06:36.109Z,83.30
2019-03-01T14:07:56.670Z,83.20
2019-03-01T14:09:11.805Z,83.30
2019-03-01T14:10:28.400Z,83.60
2019-03-01T14:11:44.696Z,83.80
2019-03-01T14:13:01.513Z,84.00
2019-03-01T14:14:18.567Z,83.50
2019-03-01T14:15:38.204Z,83.50
2019-03-01T14:16:53.380Z,83.50
2019-03-01T14:18:10.021Z,83.40
2019-03-01T14:19:26.612Z,83.60
2019-03-01T14:20:43.085Z,83.80
2019-03-01T14:22:00.130Z,84.10
2019-03-01T14:23:17.780Z,84.60
2019-03-01T14:24:34.898Z,84.90
2019-03-01T14:25:51.615Z,84.70
2019-03-01T14:27:07.989Z,85.10
2019-03-01T14:28:25.053Z,85.30
2019-03-01T14:29:41.759Z,85.50
2019-03-01T14:30:56.917Z,85.50
2019-03-01T14:32:21.888Z,85.60
2019-03-01T14:34:08.367Z,85.70
2019-03-01T14:35:43.271Z,86.10
2019-03-01T14:36:59.629Z,86.70
2019-03-01T14:38:16.077Z,86.90
2019-03-01T14:39:32.490Z,86.60
2019-03-01T14:40:48.965Z,86.60
2019-03-01T14:42:07.242Z,86.40
2019-03-01T14:43:24.846Z,86.30
2019-03-01T14:44:41.782Z,86.30
2019-03-01T14:45:59.090Z,86.50
2019-03-01T14:47:15.727Z,86.50
2019-03-01T14:48:32.239Z,87.00
2019-03-01T14:49:48.685Z,87.00
2019-03-01T14:51:06.995Z,87.40
2019-03-01T14:52:24.257Z,88.10
2019-03-01T14:53:40.756Z,88.80
2019-03-01T14:54:58.570Z,89.60
2019-03-01T14:56:15.733Z,90.20
2019-03-01T14:57:32.350Z,90.50
2019-03-01T14:58:49.718Z,90.80
2019-03-01T15:00:06.106Z,91.00
2019-03-01T15:01:26.609Z,91.50
2019-03-01T15:02:42.569Z,91.60
2019-03-01T15:03:59.792Z,91.40
2019-03-01T15:05:19.705Z,91.30
2019-03-01T15:06:37.122Z,91.80
2019-03-01T15:07:54.670Z,90.80
2019-03-01T15:09:12.000Z,90.90
2019-03-01T15:10:32.035Z,91.40
2019-03-01T15:11:48.912Z,91.60
2019-03-01T15:13:06.327Z,92.20
2019-03-01T15:14:22.843Z,92.60
2019-03-01T15:15:39.521Z,92.80
2019-03-01T15:16:56.668Z,93.00
2019-03-01T15:18:13.233Z,93.30
2019-03-01T15:19:30.519Z,93.20
2019-03-01T15:20:47.055Z,93.00
2019-03-01T15:22:04.379Z,92.30
2019-03-01T15:23:23.872Z,92.30
2019-03-01T15:24:39.044Z,92.40
2019-03-01T15:25:55.517Z,92.30
2019-03-01T15:27:13.033Z,92.40
2019-03-01T15:28:29.340Z,92.60
2019-03-01T15:29:45.797Z,92.60
2019-03-01T15:31:02.289Z,92.80
2019-03-01T15:32:18.733Z,92.80
2019-03-01T15:33:35.154Z,92.70
2019-03-01T15:34:51.970Z,92.40
2019-03-01T15:36:13.639Z,92.20
2019-03-01T15:37:31.018Z,92.30
2019-03-01T15:38:48.618Z,92.40
2019-03-01T15:40:04.892Z,92.30
2019-03-01T15:41:22.364Z,92.30
2019-03-01T15:42:38.961Z,92.20
2019-03-01T15:43:55.973Z,92.10
2019-03-01T15:45:13.103Z,92.00
2019-03-01T15:46:29.917Z,92.00
2019-03-01T15:47:46.164Z,92.00
2019-03-01T15:49:02.722Z,92.00
2019-03-01T15:50:19.141Z,92.00
2019-03-01T15:51:38.207Z,91.90
2019-03-01T15:52:55.050Z,92.10
2019-03-01T15:54:11.396Z,91.90
2019-03-01T15:55:29.599Z,92.10
2019-03-01T15:56:45.738Z,92.10
2019-03-01T15:58:02.116Z,92.20
2019-03-01T15:59:18.818Z,92.60
2019-03-01T16:00:35.388Z,92.60
2019-03-01T16:01:52.153Z,92.80
2019-03-01T16:03:09.420Z,92.90
2019-03-01T16:04:25.953Z,93.20
2019-03-01T16:05:43.146Z,93.50
2019-03-01T16:06:58.390Z,93.70
2019-03-01T16:08:22.605Z,94.00
2019-03-01T16:09:39.471Z,94.10
2019-03-01T16:11:03.677Z,94.00
2019-03-01T16:12:20.417Z,94.20
2019-03-01T16:13:36.771Z,94.40
2019-03-01T16:14:53.526Z,94.50
2019-03-01T16:16:10.831Z,94.60
2019-03-01T16:17:28.602Z,94.70
2019-03-01T16:18:45.524Z,94.60
2019-03-01T16:20:02.046Z,94.60
2019-03-01T16:21:18.821Z,94.70
2019-03-01T16:22:35.329Z,94.80
2019-03-01T16:23:52.460Z,94.80
2019-03-01T16:25:08.352Z,94.80
2019-03-01T16:26:29.742Z,94.80
2019-03-01T16:27:44.644Z,94.90
2019-03-01T16:29:03.896Z,95.00
2019-03-01T16:30:19.695Z,94.90
2019-03-01T16:31:36.341Z,95.00
2019-03-01T16:32:53.018Z,95.10
2019-03-01T16:34:09.872Z,95.20
2019-03-01T16:35:26.698Z,95.20
2019-03-01T16:36:47.946Z,95.30
2019-03-01T16:38:04.994Z,95.20
2019-03-01T16:39:23.876Z,95.20
2019-03-01T16:40:41.045Z,95.20
2019-03-01T16:41:58.344Z,95.10
2019-03-01T16:43:14.695Z,94.90
2019-03-01T16:44:31.311Z,94.80
2019-03-01T16:45:47.724Z,94.70
2019-03-01T16:47:06.705Z,94.50
2019-03-01T16:48:23.825Z,94.20
2019-03-01T16:49:40.218Z,94.30
2019-03-01T16:50:56.797Z,94.40
2019-03-01T16:52:13.529Z,94.40